sensor_id;sensor_type;location;lat;lon;timestamp;pressure;altitude;pressure_sealevel;temperature;humidity
16194;BME280;8204;53.582;10.080;2023-07-31T00:00:11;98892.72;;;16.91;100.00
16194;BME280;8204;53.582;10.080;2023-07-31T00:02:37;98893.50;;;16.91;100.00
16194;BME280;8204;53.582;10.080;2023-07-31T00:05:03;98892.47;;;16.92;100.00
16194;BME280;8204;53.582;10.080;2023-07-31T00:07:28;98888.22;;;16.91;100.00
16194;BME280;8204;53.582;10.080;2023-07-31T00:09:53;98874.19;;;16.91;100.00
16194;BME280;8204;53.582;10.080;2023-07-31T00:12:20;98866.25;;;16.91;100.00
16194;BME280;8204;53.582;10.080;2023-07-31T00:14:45;98866.25;;;16.91;100.00
16194;BME280;8204;53.582;10.080;2023-07-31T00:17:13;98878.41;;;16.92;100.00
16194;BME280;8204;53.582;10.080;2023-07-31T00:19:39;98872.34;;;16.91;100.00
16194;BME280;8204;53.582;10.080;2023-07-31T00:22:05;98867.28;;;16.90;100.00
16194;BME280;8204;53.582;10.080;2023-07-31T00:24:31;98852.22;;;16.90;100.00
16194;BME280;8204;53.582;10.080;2023-07-31T00:26:56;98865.44;;;16.90;100.00
16194;BME280;8204;53.582;10.080;2023-07-31T00:29:21;98877.63;;;16.91;100.00
16194;BME280;8204;53.582;10.080;2023-07-31T00:31:47;98870.72;;;16.90;100.00
16194;BME280;8204;53.582;10.080;2023-07-31T00:34:12;98862.78;;;16.90;100.00
16194;BME280;8204;53.582;10.080;2023-07-31T00:36:37;98852.22;;;16.90;100.00
16194;BME280;8204;53.582;10.080;2023-07-31T00:39:04;98841.63;;;16.90;100.00
16194;BME280;8204;53.582;10.080;2023-07-31T00:41:30;98836.91;;;16.92;100.00
16194;BME280;8204;53.582;10.080;2023-07-31T00:43:55;98840.59;;;16.91;100.00
16194;BME280;8204;53.582;10.080;2023-07-31T00:46:21;98833.69;;;16.90;100.00
16194;BME280;8204;53.582;10.080;2023-07-31T00:48:46;98826.31;;;16.92;100.00
16194;BME280;8204;53.582;10.080;2023-07-31T00:51:12;98829.75;;;16.93;100.00
16194;BME280;8204;53.582;10.080;2023-07-31T00:53:38;98813.66;;;16.94;100.00
16194;BME280;8204;53.582;10.080;2023-07-31T00:56:04;98830.56;;;16.93;100.00
16194;BME280;8204;53.582;10.080;2023-07-31T00:58:30;98848.28;;;16.93;100.00
16194;BME280;8204;53.582;10.080;2023-07-31T01:00:55;98836.91;;;16.92;100.00
16194;BME280;8204;53.582;10.080;2023-07-31T01:03:21;98854.06;;;16.90;100.00
16194;BME280;8204;53.582;10.080;2023-07-31T01:06:10;98858.53;;;16.89;100.00
16194;BME280;8204;53.582;10.080;2023-07-31T01:11:46;98883.66;;;16.87;100.00
16194;BME280;8204;53.582;10.080;2023-07-31T01:14:13;98887.84;;;16.83;100.00
16194;BME280;8204;53.582;10.080;2023-07-31T01:16:38;98859.53;;;16.83;100.00
16194;BME280;8204;53.582;10.080;2023-07-31T01:19:06;98846.78;;;16.81;100.00
16194;BME280;8204;53.582;10.080;2023-07-31T01:24:20;98866.59;;;16.78;100.00
16194;BME280;8204;53.582;10.080;2023-07-31T01:27:15;98844.63;;;16.78;100.00
16194;BME280;8204;53.582;10.080;2023-07-31T01:29:47;98836.94;;;16.76;100.00
16194;BME280;8204;53.582;10.080;2023-07-31T01:32:14;98852.00;;;16.76;100.00
16194;BME280;8204;53.582;10.080;2023-07-31T01:34:43;98838.22;;;16.74;100.00
16194;BME280;8204;53.582;10.080;2023-07-31T01:37:09;98838.22;;;16.74;100.00
16194;BME280;8204;53.582;10.080;2023-07-31T01:39:35;98848.00;;;16.73;100.00
16194;BME280;8204;53.582;10.080;2023-07-31T01:42:00;98842.69;;;16.73;100.00
16194;BME280;8204;53.582;10.080;2023-07-31T01:44:26;98831.34;;;16.73;100.00
16194;BME280;8204;53.582;10.080;2023-07-31T01:46:52;98831.34;;;16.73;100.00
16194;BME280;8204;53.582;10.080;2023-07-31T01:49:18;98806.50;;;16.74;100.00
16194;BME280;8204;53.582;10.080;2023-07-31T01:51:43;98788.75;;;16.74;100.00
16194;BME280;8204;53.582;10.080;2023-07-31T01:54:09;98783.72;;;16.73;100.00
16194;BME280;8204;53.582;10.080;2023-07-31T01:56:34;98798.81;;;16.72;100.00
16194;BME280;8204;53.582;10.080;2023-07-31T01:58:59;98773.94;;;16.73;100.00
16194;BME280;8204;53.582;10.080;2023-07-31T02:01:25;98762.56;;;16.73;100.00
16194;BME280;8204;53.582;10.080;2023-07-31T02:03:50;98762.56;;;16.73;100.00
16194;BME280;8204;53.582;10.080;2023-07-31T02:06:16;98749.91;;;16.75;100.00
16194;BME280;8204;53.582;10.080;2023-07-31T02:08:42;98736.69;;;16.75;100.00
16194;BME280;8204;53.582;10.080;2023-07-31T02:11:07;98735.59;;;16.76;100.00
16194;BME280;8204;53.582;10.080;2023-07-31T02:13:33;98731.91;;;16.77;100.00
16194;BME280;8204;53.582;10.080;2023-07-31T02:15:58;98744.91;;;16.78;100.00
16194;BME280;8204;53.582;10.080;2023-07-31T02:18:24;98743.06;;;16.79;100.00
16194;BME280;8204;53.582;10.080;2023-07-31T02:20:52;98731.69;;;16.78;100.00
16194;BME280;8204;53.582;10.080;2023-07-31T02:23:18;98738.56;;;16.79;100.00
16194;BME280;8204;53.582;10.080;2023-07-31T02:25:45;98750.75;;;16.80;100.00
16194;BME280;8204;53.582;10.080;2023-07-31T02:28:10;98734.66;;;16.82;100.00
16194;BME280;8204;53.582;10.080;2023-07-31T02:30:36;98737.81;;;16.83;100.00
16194;BME280;8204;53.582;10.080;2023-07-31T02:33:01;98714.03;;;16.83;100.00
16194;BME280;8204;53.582;10.080;2023-07-31T02:35:27;98706.09;;;16.83;100.00
16194;BME280;8204;53.582;10.080;2023-07-31T02:37:53;98699.50;;;16.86;100.00
16194;BME280;8204;53.582;10.080;2023-07-31T02:40:19;98687.88;;;16.87;100.00
16194;BME280;8204;53.582;10.080;2023-07-31T02:42:44;98695.81;;;16.87;100.00
16194;BME280;8204;53.582;10.080;2023-07-31T02:45:09;98690.50;;;16.87;100.00
16194;BME280;8204;53.582;10.080;2023-07-31T02:47:36;98679.19;;;16.91;100.00
16194;BME280;8204;53.582;10.080;2023-07-31T02:50:04;98685.53;;;16.90;100.00
16194;BME280;8204;53.582;10.080;2023-07-31T02:52:30;98682.63;;;16.92;100.00
16194;BME280;8204;53.582;10.080;2023-07-31T02:54:57;98664.38;;;16.90;100.00
16194;BME280;8204;53.582;10.080;2023-07-31T02:57:22;98655.38;;;16.91;100.00
16194;BME280;8204;53.582;10.080;2023-07-31T02:59:47;98643.75;;;16.92;100.00
16194;BME280;8204;53.582;10.080;2023-07-31T03:02:13;98645.59;;;16.92;100.00
16194;BME280;8204;53.582;10.080;2023-07-31T03:04:39;98649.31;;;16.91;100.00
16194;BME280;8204;53.582;10.080;2023-07-31T03:07:05;98643.19;;;16.90;100.00
16194;BME280;8204;53.582;10.080;2023-07-31T03:09:31;98650.34;;;16.90;100.00
16194;BME280;8204;53.582;10.080;2023-07-31T03:11:56;98636.59;;;16.93;100.00
16194;BME280;8204;53.582;10.080;2023-07-31T03:14:22;98635.00;;;16.92;100.00
16194;BME280;8204;53.582;10.080;2023-07-31T03:16:47;98643.25;;;16.95;100.00
16194;BME280;8204;53.582;10.080;2023-07-31T03:19:13;98630.00;;;16.95;100.00
16194;BME280;8204;53.582;10.080;2023-07-31T03:21:38;98635.00;;;16.92;100.00
16194;BME280;8204;53.582;10.080;2023-07-31T03:24:04;98624.72;;;16.95;100.00
16194;BME280;8204;53.582;10.080;2023-07-31T03:26:31;98617.59;;;16.96;100.00
16194;BME280;8204;53.582;10.080;2023-07-31T03:28:57;98611.50;;;16.95;100.00
16194;BME280;8204;53.582;10.080;2023-07-31T03:31:22;98598.81;;;16.97;100.00
16194;BME280;8204;53.582;10.080;2023-07-31T03:33:48;98608.34;;;16.98;100.00
16194;BME280;8204;53.582;10.080;2023-07-31T03:36:13;98600.69;;;16.97;100.00
16194;BME280;8204;53.582;10.080;2023-07-31T03:38:39;98607.56;;;16.98;100.00
16194;BME280;8204;53.582;10.080;2023-07-31T03:41:04;98609.97;;;16.99;100.00
16194;BME280;8204;53.582;10.080;2023-07-31T03:43:32;98621.09;;;17.01;100.00
16194;BME280;8204;53.582;10.080;2023-07-31T03:46:00;98589.56;;;17.00;100.00
16194;BME280;8204;53.582;10.080;2023-07-31T03:48:25;98595.69;;;17.00;100.00
16194;BME280;8204;53.582;10.080;2023-07-31T03:50:51;98584.84;;;17.02;100.00
16194;BME280;8204;53.582;10.080;2023-07-31T03:53:17;98592.28;;;17.05;100.00
16194;BME280;8204;53.582;10.080;2023-07-31T03:55:45;98599.41;;;17.04;100.00
16194;BME280;8204;53.582;10.080;2023-07-31T03:58:10;98595.16;;;17.03;100.00
16194;BME280;8204;53.582;10.080;2023-07-31T04:00:36;98598.38;;;17.05;100.00
16194;BME280;8204;53.582;10.080;2023-07-31T04:03:01;98596.78;;;17.04;100.00
16194;BME280;8204;53.582;10.080;2023-07-31T04:05:26;98595.19;;;17.08;100.00
16194;BME280;8204;53.582;10.080;2023-07-31T04:07:52;98587.25;;;17.08;100.00
16194;BME280;8204;53.582;10.080;2023-07-31T04:10:17;98585.44;;;17.09;100.00
16194;BME280;8204;53.582;10.080;2023-07-31T04:12:43;98580.69;;;17.11;100.00
16194;BME280;8204;53.582;10.080;2023-07-31T04:15:09;98572.75;;;17.11;100.00
16194;BME280;8204;53.582;10.080;2023-07-31T04:17:35;98586.78;;;17.11;100.00
16194;BME280;8204;53.582;10.080;2023-07-31T04:20:01;98590.75;;;17.14;100.00
16194;BME280;8204;53.582;10.080;2023-07-31T04:22:27;98587.34;;;17.13;100.00
16194;BME280;8204;53.582;10.080;2023-07-31T04:24:52;98585.22;;;17.15;100.00
16194;BME280;8204;53.582;10.080;2023-07-31T04:27:18;98599.25;;;17.16;100.00
16194;BME280;8204;53.582;10.080;2023-07-31T04:29:43;98584.97;;;17.17;100.00
16194;BME280;8204;53.582;10.080;2023-07-31T04:32:11;98572.53;;;17.17;100.00
16194;BME280;8204;53.582;10.080;2023-07-31T04:34:36;98554.00;;;17.17;100.00
16194;BME280;8204;53.582;10.080;2023-07-31T04:37:02;98557.19;;;17.19;100.00
16194;BME280;8204;53.582;10.080;2023-07-31T04:39:27;98558.81;;;17.20;100.00
16194;BME280;8204;53.582;10.080;2023-07-31T04:41:53;98558.81;;;17.20;100.00
16194;BME280;8204;53.582;10.080;2023-07-31T04:44:18;98569.38;;;17.20;100.00
16194;BME280;8204;53.582;10.080;2023-07-31T04:46:44;98573.09;;;17.19;100.00
16194;BME280;8204;53.582;10.080;2023-07-31T04:49:10;98565.41;;;17.18;100.00
16194;BME280;8204;53.582;10.080;2023-07-31T04:51:36;98555.59;;;17.18;100.00
16194;BME280;8204;53.582;10.080;2023-07-31T04:54:02;98544.22;;;17.18;100.00
16194;BME280;8204;53.582;10.080;2023-07-31T04:56:27;98534.91;;;17.15;100.00
16194;BME280;8204;53.582;10.080;2023-07-31T04:58:53;98529.13;;;17.18;100.00
16194;BME280;8204;53.582;10.080;2023-07-31T05:01:18;98530.72;;;17.19;100.00
16194;BME280;8204;53.582;10.080;2023-07-31T05:03:43;98533.13;;;17.21;100.00
16194;BME280;8204;53.582;10.080;2023-07-31T05:06:10;98522.53;;;17.21;100.00
16194;BME280;8204;53.582;10.080;2023-07-31T05:08:36;98519.63;;;17.22;100.00
16194;BME280;8204;53.582;10.080;2023-07-31T05:11:02;98519.63;;;17.22;100.00
16194;BME280;8204;53.582;10.080;2023-07-31T05:13:27;98515.94;;;17.23;100.00
16194;BME280;8204;53.582;10.080;2023-07-31T05:15:53;98526.53;;;17.23;100.00
16194;BME280;8204;53.582;10.080;2023-07-31T05:18:19;98518.84;;;17.22;100.00
16194;BME280;8204;53.582;10.080;2023-07-31T05:20:44;98496.06;;;17.21;100.00
16194;BME280;8204;53.582;10.080;2023-07-31T05:23:09;98487.34;;;17.20;100.00
16194;BME280;8204;53.582;10.080;2023-07-31T05:25:35;98481.78;;;17.22;100.00
16194;BME280;8204;53.582;10.080;2023-07-31T05:28:00;98483.38;;;17.23;100.00
16194;BME280;8204;53.582;10.080;2023-07-31T05:30:26;98467.25;;;17.24;100.00
16194;BME280;8204;53.582;10.080;2023-07-31T05:32:52;98448.72;;;17.24;100.00
16194;BME280;8204;53.582;10.080;2023-07-31T05:35:17;98451.09;;;17.26;100.00
16194;BME280;8204;53.582;10.080;2023-07-31T05:37:42;98460.06;;;17.25;100.00
16194;BME280;8204;53.582;10.080;2023-07-31T05:40:08;98500.31;;;17.22;100.00
16194;BME280;8204;53.582;10.080;2023-07-31T05:42:34;98511.16;;;17.20;100.00
16194;BME280;8204;53.582;10.080;2023-07-31T05:45:01;98496.84;;;17.21;100.00
16194;BME280;8204;53.582;10.080;2023-07-31T05:47:26;98488.38;;;17.19;100.00
16194;BME280;8204;53.582;10.080;2023-07-31T05:49:52;98468.25;;;17.18;100.00
16194;BME280;8204;53.582;10.080;2023-07-31T05:52:18;98458.72;;;17.17;100.00
16194;BME280;8204;53.582;10.080;2023-07-31T05:54:44;98448.13;;;17.17;100.00
16194;BME280;8204;53.582;10.080;2023-07-31T05:57:11;98432.25;;;17.17;100.00
16194;BME280;8204;53.582;10.080;2023-07-31T05:59:37;98426.41;;;17.15;100.00
16194;BME280;8204;53.582;10.080;2023-07-31T06:02:02;98420.06;;;17.16;100.00
16194;BME280;8204;53.582;10.080;2023-07-31T06:04:28;98411.09;;;17.17;100.00
16194;BME280;8204;53.582;10.080;2023-07-31T06:06:54;98392.56;;;17.17;100.00
16194;BME280;8204;53.582;10.080;2023-07-31T06:09:20;98388.31;;;17.21;100.00
16194;BME280;8204;53.582;10.080;2023-07-31T06:11:46;98385.44;;;17.23;100.00
16194;BME280;8204;53.582;10.080;2023-07-31T06:14:12;98377.78;;;17.26;100.00
16194;BME280;8204;53.582;10.080;2023-07-31T06:16:37;98376.78;;;17.27;100.00
16194;BME280;8204;53.582;10.080;2023-07-31T06:19:03;98379.69;;;17.31;100.00
16194;BME280;8204;53.582;10.080;2023-07-31T06:21:29;98373.09;;;17.33;100.00
16194;BME280;8204;53.582;10.080;2023-07-31T06:23:55;98369.91;;;17.36;100.00
16194;BME280;8204;53.582;10.080;2023-07-31T06:26:20;98371.22;;;17.39;100.00
16194;BME280;8204;53.582;10.080;2023-07-31T06:28:46;98367.28;;;17.41;100.00
16194;BME280;8204;53.582;10.080;2023-07-31T06:31:12;98357.22;;;17.43;100.00
16194;BME280;8204;53.582;10.080;2023-07-31T06:33:38;98349.81;;;17.45;100.00
16194;BME280;8204;53.582;10.080;2023-07-31T06:36:04;98342.44;;;17.47;100.00
16194;BME280;8204;53.582;10.080;2023-07-31T06:38:30;98364.94;;;17.50;100.00
16194;BME280;8204;53.582;10.080;2023-07-31T06:40:55;98354.09;;;17.51;100.00
16194;BME280;8204;53.582;10.080;2023-07-31T06:43:21;98351.16;;;17.53;100.00
16194;BME280;8204;53.582;10.080;2023-07-31T06:45:47;98351.97;;;17.53;100.00
16194;BME280;8204;53.582;10.080;2023-07-31T06:48:16;98376.31;;;17.55;100.00
16194;BME280;8204;53.582;10.080;2023-07-31T06:50:41;98364.13;;;17.54;100.00
16194;BME280;8204;53.582;10.080;2023-07-31T06:53:07;98348.78;;;17.56;100.00
16194;BME280;8204;53.582;10.080;2023-07-31T06:55:33;98367.34;;;17.56;100.00
16194;BME280;8204;53.582;10.080;2023-07-31T06:57:58;98369.72;;;17.57;100.00
16194;BME280;8204;53.582;10.080;2023-07-31T07:00:24;98358.88;;;17.59;100.00
16194;BME280;8204;53.582;10.080;2023-07-31T07:02:50;98350.41;;;17.62;100.00
16194;BME280;8204;53.582;10.080;2023-07-31T07:05:16;98361.25;;;17.65;100.00
16194;BME280;8204;53.582;10.080;2023-07-31T07:07:42;98379.28;;;17.63;100.00
16194;BME280;8204;53.582;10.080;2023-07-31T07:10:08;98380.84;;;17.64;100.00
16194;BME280;8204;53.582;10.080;2023-07-31T07:12:34;98381.94;;;17.63;100.00
16194;BME280;8204;53.582;10.080;2023-07-31T07:15:02;98405.50;;;17.65;100.00
16194;BME280;8204;53.582;10.080;2023-07-31T07:17:28;98403.38;;;17.67;100.00
16194;BME280;8204;53.582;10.080;2023-07-31T07:19:57;98388.03;;;17.69;100.00
16194;BME280;8204;53.582;10.080;2023-07-31T07:22:23;98368.97;;;17.72;100.00
16194;BME280;8204;53.582;10.080;2023-07-31T07:24:48;98354.16;;;17.76;100.00
16194;BME280;8204;53.582;10.080;2023-07-31T07:27:14;98357.59;;;17.76;100.00
16194;BME280;8204;53.582;10.080;2023-07-31T07:29:40;98367.13;;;17.77;100.00
16194;BME280;8204;53.582;10.080;2023-07-31T07:32:05;98376.94;;;17.77;100.00
16194;BME280;8204;53.582;10.080;2023-07-31T07:34:31;98369.00;;;17.77;100.00
16194;BME280;8204;53.582;10.080;2023-07-31T07:36:56;98353.09;;;17.77;100.00
16194;BME280;8204;53.582;10.080;2023-07-31T07:39:22;98343.03;;;17.79;100.00
16194;BME280;8204;53.582;10.080;2023-07-31T07:41:48;98315.50;;;17.80;100.00
16194;BME280;8204;53.582;10.080;2023-07-31T07:44:14;98303.03;;;17.80;100.00
16194;BME280;8204;53.582;10.080;2023-07-31T07:46:40;98294.03;;;17.81;100.00
16194;BME280;8204;53.582;10.080;2023-07-31T07:49:05;98284.75;;;17.84;100.00
16194;BME280;8204;53.582;10.080;2023-07-31T07:51:31;98294.81;;;17.82;100.00
16194;BME280;8204;53.582;10.080;2023-07-31T07:54:00;98301.16;;;17.81;100.00
16194;BME280;8204;53.582;10.080;2023-07-31T07:56:26;98295.09;;;17.80;100.00
16194;BME280;8204;53.582;10.080;2023-07-31T07:58:52;98295.63;;;17.82;100.00
16194;BME280;8204;53.582;10.080;2023-07-31T08:01:19;98273.34;;;17.83;100.00
16194;BME280;8204;53.582;10.080;2023-07-31T08:03:44;98264.34;;;17.84;100.00
16194;BME280;8204;53.582;10.080;2023-07-31T08:06:10;98248.72;;;17.88;100.00
16194;BME280;8204;53.582;10.080;2023-07-31T08:08:36;98242.91;;;17.91;100.00
16194;BME280;8204;53.582;10.080;2023-07-31T08:11:02;98239.44;;;17.95;100.00
16194;BME280;8204;53.582;10.080;2023-07-31T08:13:28;98224.31;;;18.01;100.00
16194;BME280;8204;53.582;10.080;2023-07-31T08:15:54;98204.69;;;18.07;100.00
16194;BME280;8204;53.582;10.080;2023-07-31T08:18:20;98189.31;;;18.14;100.00
16194;BME280;8204;53.582;10.080;2023-07-31T08:20:45;98179.28;;;18.21;100.00
16194;BME280;8204;53.582;10.080;2023-07-31T08:23:11;98185.91;;;18.28;100.00
16194;BME280;8204;53.582;10.080;2023-07-31T08:25:36;98192.25;;;18.32;100.00
16194;BME280;8204;53.582;10.080;2023-07-31T08:28:03;98208.41;;;18.35;100.00
16194;BME280;8204;53.582;10.080;2023-07-31T08:30:29;98196.19;;;18.39;100.00
16194;BME280;8204;53.582;10.080;2023-07-31T08:32:54;98199.34;;;18.46;100.00
16194;BME280;8204;53.582;10.080;2023-07-31T08:35:19;98199.06;;;18.53;100.00
16194;BME280;8204;53.582;10.080;2023-07-31T08:37:45;98209.91;;;18.61;100.00
16194;BME280;8204;53.582;10.080;2023-07-31T08:40:11;98191.56;;;18.70;100.00
16194;BME280;8204;53.582;10.080;2023-07-31T08:42:44;98200.84;;;18.77;100.00
16194;BME280;8204;53.582;10.080;2023-07-31T08:45:14;98219.91;;;18.84;100.00
16194;BME280;8204;53.582;10.080;2023-07-31T08:47:48;98238.97;;;18.91;100.00
16194;BME280;8204;53.582;10.080;2023-07-31T08:50:15;98265.25;;;18.98;100.00
16194;BME280;8204;53.582;10.080;2023-07-31T08:52:40;98288.03;;;19.03;100.00
16194;BME280;8204;53.582;10.080;2023-07-31T08:55:07;98317.50;;;19.07;100.00
16194;BME280;8204;53.582;10.080;2023-07-31T08:57:35;98361.56;;;19.13;100.00
16194;BME280;8204;53.582;10.080;2023-07-31T09:00:01;98423.69;;;19.17;100.00
16194;BME280;8204;53.582;10.080;2023-07-31T09:02:33;98446.78;;;19.21;100.00
16194;BME280;8204;53.582;10.080;2023-07-31T09:05:01;98499.09;;;19.21;100.00
16194;BME280;8204;53.582;10.080;2023-07-31T09:07:29;98524.34;;;19.18;100.00
16194;BME280;8204;53.582;10.080;2023-07-31T09:09:57;98525.38;;;19.22;100.00
16194;BME280;8204;53.582;10.080;2023-07-31T09:12:22;98494.31;;;19.23;100.00
16194;BME280;8204;53.582;10.080;2023-07-31T09:14:48;98462.97;;;19.25;100.00
16194;BME280;8204;53.582;10.080;2023-07-31T09:17:13;98474.41;;;19.25;100.00
16194;BME280;8204;53.582;10.080;2023-07-31T09:19:38;98476.25;;;19.25;100.00
16194;BME280;8204;53.582;10.080;2023-07-31T09:22:07;98491.91;;;19.21;100.00
16194;BME280;8204;53.582;10.080;2023-07-31T09:24:33;98473.31;;;19.21;100.00
16194;BME280;8204;53.582;10.080;2023-07-31T09:27:01;98450.75;;;19.19;100.00
16194;BME280;8204;53.582;10.080;2023-07-31T09:29:27;98444.13;;;19.16;100.00
16194;BME280;8204;53.582;10.080;2023-07-31T09:31:54;98438.81;;;19.16;100.00
16194;BME280;8204;53.582;10.080;2023-07-31T09:34:21;98407.75;;;19.17;100.00
16194;BME280;8204;53.582;10.080;2023-07-31T09:36:52;98422.09;;;19.21;100.00
16194;BME280;8204;53.582;10.080;2023-07-31T09:39:19;98462.47;;;19.23;100.00
16194;BME280;8204;53.582;10.080;2023-07-31T09:41:48;98501.47;;;19.22;100.00
16194;BME280;8204;53.582;10.080;2023-07-31T09:44:18;98589.91;;;19.18;100.00
16194;BME280;8204;53.582;10.080;2023-07-31T09:46:44;98597.34;;;19.16;100.00
16194;BME280;8204;53.582;10.080;2023-07-31T09:49:11;98573.72;;;19.19;100.00
16194;BME280;8204;53.582;10.080;2023-07-31T09:51:38;98574.25;;;19.21;100.00
16194;BME280;8204;53.582;10.080;2023-07-31T09:54:24;98576.66;;;19.23;100.00
16194;BME280;8204;53.582;10.080;2023-07-31T09:56:50;98554.84;;;19.26;100.00
16194;BME280;8204;53.582;10.080;2023-07-31T09:59:17;98539.72;;;19.26;100.00
16194;BME280;8204;53.582;10.080;2023-07-31T10:01:44;98517.16;;;19.29;100.00
16194;BME280;8204;53.582;10.080;2023-07-31T10:04:12;98491.09;;;19.31;100.00
16194;BME280;8204;53.582;10.080;2023-07-31T10:06:39;98468.28;;;19.35;100.00
16194;BME280;8204;53.582;10.080;2023-07-31T10:09:07;98464.28;;;19.37;100.00
16194;BME280;8204;53.582;10.080;2023-07-31T10:11:59;98467.47;;;19.39;100.00
16194;BME280;8204;53.582;10.080;2023-07-31T10:14:23;98458.41;;;19.40;100.00
16194;BME280;8204;53.582;10.080;2023-07-31T10:16:50;98440.34;;;19.42;100.00
16194;BME280;8204;53.582;10.080;2023-07-31T10:19:17;98421.47;;;19.44;100.00
16194;BME280;8204;53.582;10.080;2023-07-31T10:21:44;98437.41;;;19.44;100.00
16194;BME280;8204;53.582;10.080;2023-07-31T10:24:11;98459.75;;;19.43;100.00
16194;BME280;8204;53.582;10.080;2023-07-31T10:26:38;98461.88;;;19.41;100.00
16194;BME280;8204;53.582;10.080;2023-07-31T10:29:05;98465.59;;;19.40;100.00
16194;BME280;8204;53.582;10.080;2023-07-31T10:31:32;98462.69;;;19.36;100.00
16194;BME280;8204;53.582;10.080;2023-07-31T10:33:58;98474.38;;;19.35;100.00
16194;BME280;8204;53.582;10.080;2023-07-31T10:36:26;98438.00;;;19.36;100.00
16194;BME280;8204;53.582;10.080;2023-07-31T10:38:52;98411.69;;;19.34;100.00
16194;BME280;8204;53.582;10.080;2023-07-31T10:41:17;98436.94;;;19.32;100.00
16194;BME280;8204;53.582;10.080;2023-07-31T10:43:43;98433.50;;;19.31;100.00
16194;BME280;8204;53.582;10.080;2023-07-31T10:46:12;98401.09;;;19.29;100.00
16194;BME280;8204;53.582;10.080;2023-07-31T10:48:40;98371.88;;;19.29;100.00
16194;BME280;8204;53.582;10.080;2023-07-31T10:51:12;98354.34;;;19.28;100.00
16194;BME280;8204;53.582;10.080;2023-07-31T10:53:39;98330.44;;;19.28;100.00
16194;BME280;8204;53.582;10.080;2023-07-31T10:56:08;98312.13;;;19.27;100.00
16194;BME280;8204;53.582;10.080;2023-07-31T10:58:34;98321.97;;;19.26;100.00
16194;BME280;8204;53.582;10.080;2023-07-31T11:01:02;98331.25;;;19.24;100.00
16194;BME280;8204;53.582;10.080;2023-07-31T11:03:43;98328.09;;;19.22;100.00
16194;BME280;8204;53.582;10.080;2023-07-31T11:06:09;98320.13;;;19.17;100.00
16194;BME280;8204;53.582;10.080;2023-07-31T11:08:41;98320.16;;;19.12;100.00
16194;BME280;8204;53.582;10.080;2023-07-31T11:11:09;98309.81;;;19.10;100.00
16194;BME280;8204;53.582;10.080;2023-07-31T11:16:12;98239.44;;;19.08;100.00
16194;BME280;8204;53.582;10.080;2023-07-31T11:18:40;98226.72;;;19.10;100.00
16194;BME280;8204;53.582;10.080;2023-07-31T11:21:06;98194.84;;;19.15;100.00
16194;BME280;8204;53.582;10.080;2023-07-31T11:23:32;98143.25;;;19.26;100.00
16194;BME280;8204;53.582;10.080;2023-07-31T11:26:01;98102.53;;;19.35;100.00
16194;BME280;8204;53.582;10.080;2023-07-31T11:28:32;98101.16;;;19.43;100.00
16194;BME280;8204;53.582;10.080;2023-07-31T11:30:58;98121.31;;;19.49;100.00
16194;BME280;8204;53.582;10.080;2023-07-31T11:33:23;98130.84;;;19.50;100.00
16194;BME280;8204;53.582;10.080;2023-07-31T11:35:49;98147.59;;;19.50;100.00
16194;BME280;8204;53.582;10.080;2023-07-31T11:38:26;98144.13;;;19.50;100.00
16194;BME280;8204;53.582;10.080;2023-07-31T11:40:53;98140.97;;;19.48;100.00
16194;BME280;8204;53.582;10.080;2023-07-31T11:43:21;98143.88;;;19.46;100.00
16194;BME280;8204;53.582;10.080;2023-07-31T11:45:48;98138.56;;;19.46;100.00
16194;BME280;8204;53.582;10.080;2023-07-31T11:48:31;98107.78;;;19.45;100.00
16194;BME280;8204;53.582;10.080;2023-07-31T11:51:00;98092.34;;;19.47;100.00
16194;BME280;8204;53.582;10.080;2023-07-31T11:53:57;98015.53;;;19.51;100.00
16194;BME280;8204;53.582;10.080;2023-07-31T11:56:24;98025.38;;;19.50;100.00
16194;BME280;8204;53.582;10.080;2023-07-31T11:58:54;98033.41;;;19.45;100.00
16194;BME280;8204;53.582;10.080;2023-07-31T12:01:21;98036.09;;;19.40;100.00
16194;BME280;8204;53.582;10.080;2023-07-31T12:03:47;98019.16;;;19.36;100.00
16194;BME280;8204;53.582;10.080;2023-07-31T12:06:14;97978.56;;;19.31;100.00
16194;BME280;8204;53.582;10.080;2023-07-31T12:08:40;97930.75;;;19.31;100.00
16194;BME280;8204;53.582;10.080;2023-07-31T12:11:09;97893.09;;;19.29;100.00
16194;BME280;8204;53.582;10.080;2023-07-31T12:13:40;97875.56;;;19.28;100.00
16194;BME280;8204;53.582;10.080;2023-07-31T12:16:05;97853.81;;;19.26;100.00
16194;BME280;8204;53.582;10.080;2023-07-31T12:18:36;97823.03;;;19.25;100.00
16194;BME280;8204;53.582;10.080;2023-07-31T12:21:05;97796.47;;;19.25;100.00
16194;BME280;8204;53.582;10.080;2023-07-31T12:23:32;97759.03;;;19.26;100.00
16194;BME280;8204;53.582;10.080;2023-07-31T12:26:05;97742.31;;;19.26;100.00
16194;BME280;8204;53.582;10.080;2023-07-31T12:28:58;97716.25;;;19.28;100.00
16194;BME280;8204;53.582;10.080;2023-07-31T12:31:27;97712.81;;;19.27;100.00
16194;BME280;8204;53.582;10.080;2023-07-31T12:33:55;97712.53;;;19.29;100.00
16194;BME280;8204;53.582;10.080;2023-07-31T12:36:22;97713.59;;;19.28;100.00
16194;BME280;8204;53.582;10.080;2023-07-31T12:38:49;97700.03;;;19.29;100.00
16194;BME280;8204;53.582;10.080;2023-07-31T12:41:16;97693.34;;;19.32;100.00
16194;BME280;8204;53.582;10.080;2023-07-31T12:43:44;97680.09;;;19.32;100.00
16194;BME280;8204;53.582;10.080;2023-07-31T12:46:10;97665.66;;;19.38;100.00
16194;BME280;8204;53.582;10.080;2023-07-31T12:48:37;97656.31;;;19.40;100.00
16194;BME280;8204;53.582;10.080;2023-07-31T12:51:03;97670.41;;;19.41;100.00
16194;BME280;8204;53.582;10.080;2023-07-31T12:53:28;97684.19;;;19.43;100.00
16194;BME280;8204;53.582;10.080;2023-07-31T12:55:55;97678.28;;;19.46;100.00